createdAt,value
2023-01-15T00:00:28.756Z,6.00
2023-01-15T00:01:28.799Z,8.50
2023-01-15T00:02:28.776Z,7.20
2023-01-15T00:03:28.732Z,7.80
2023-01-15T00:04:28.715Z,6.20
2023-01-15T00:05:28.707Z,11.20
2023-01-15T00:06:28.703Z,9.10
2023-01-15T00:07:28.696Z,8.80
2023-01-15T00:08:28.679Z,7.80
2023-01-15T00:09:28.718Z,7.40
2023-01-15T00:10:28.662Z,6.70
2023-01-15T00:11:28.652Z,6.60
2023-01-15T00:12:28.653Z,9.20
2023-01-15T00:13:28.627Z,9.00
2023-01-15T00:14:28.621Z,6.40
2023-01-15T00:15:28.611Z,6.30
2023-01-15T00:16:28.615Z,6.10
2023-01-15T00:17:28.615Z,6.80
2023-01-15T00:18:28.596Z,5.80
2023-01-15T00:19:28.574Z,5.00
2023-01-15T00:20:28.573Z,11.30
2023-01-15T00:21:28.550Z,7.80
2023-01-15T00:22:28.561Z,5.70
2023-01-15T00:23:28.536Z,7.00
2023-01-15T00:24:28.524Z,4.80
2023-01-15T00:25:28.517Z,5.20
2023-01-15T00:26:28.509Z,7.30
2023-01-15T00:27:28.513Z,8.10
2023-01-15T00:28:28.492Z,6.80
2023-01-15T00:29:28.483Z,5.60
2023-01-15T00:30:28.477Z,6.10
2023-01-15T00:31:28.491Z,7.30
2023-01-15T00:32:28.463Z,5.50
2023-01-15T00:33:28.458Z,4.20
2023-01-15T00:34:28.442Z,4.80
2023-01-15T00:35:28.428Z,4.10
2023-01-15T00:36:28.435Z,7.10
2023-01-15T00:37:28.414Z,5.70
2023-01-15T00:38:28.399Z,4.90
2023-01-15T00:39:28.382Z,4.00
2023-01-15T00:40:28.387Z,5.60
2023-01-15T00:41:28.378Z,4.40
2023-01-15T00:42:28.377Z,3.80
2023-01-15T00:43:28.360Z,4.40
2023-01-15T00:44:28.348Z,4.40
2023-01-15T00:45:28.323Z,5.40
2023-01-15T00:46:28.463Z,5.00
2023-01-15T00:47:28.319Z,3.50
2023-01-15T00:48:28.313Z,4.10
2023-01-15T00:49:28.290Z,3.60
2023-01-15T00:50:28.282Z,2.50
2023-01-15T00:51:28.303Z,3.40
2023-01-15T00:52:28.362Z,3.10
2023-01-15T00:53:28.256Z,7.10
2023-01-15T00:54:28.245Z,3.40
2023-01-15T00:55:28.234Z,3.40
2023-01-15T00:56:28.225Z,4.30
2023-01-15T00:57:28.220Z,2.90
2023-01-15T00:58:28.207Z,2.80
2023-01-15T00:59:28.201Z,4.20
2023-01-15T01:00:28.183Z,2.70
2023-01-15T01:01:28.261Z,2.00
2023-01-15T01:02:28.255Z,3.80
2023-01-15T01:03:28.156Z,3.00
2023-01-15T01:04:28.159Z,2.80
2023-01-15T01:05:28.140Z,3.00
2023-01-15T01:06:28.142Z,3.70
2023-01-15T01:07:28.122Z,1.80
2023-01-15T01:08:28.113Z,5.80
2023-01-15T01:09:28.118Z,1.60
2023-01-15T01:10:28.100Z,3.20
2023-01-15T01:11:28.084Z,2.80
2023-01-15T01:12:28.079Z,4.30
2023-01-15T01:13:28.056Z,3.40
2023-01-15T01:14:28.083Z,5.80
2023-01-15T01:15:28.046Z,3.40
2023-01-15T01:16:28.102Z,6.60
2023-01-15T01:17:28.041Z,5.00
2023-01-15T01:18:28.001Z,4.70
2023-01-15T01:19:28.039Z,2.60
2023-01-15T01:20:27.988Z,2.20
2023-01-15T01:21:27.985Z,3.20
2023-01-15T01:22:27.992Z,3.20
2023-01-15T01:23:27.958Z,2.40
2023-01-15T01:24:27.950Z,5.30
2023-01-15T01:25:27.940Z,3.20
2023-01-15T01:26:27.927Z,2.20
2023-01-15T01:27:27.932Z,4.70
2023-01-15T01:28:27.908Z,1.50
2023-01-15T01:29:27.900Z,2.90
2023-01-15T01:30:27.886Z,3.30
2023-01-15T01:31:28.100Z,1.90
2023-01-15T01:32:27.887Z,2.50
2023-01-15T01:33:27.860Z,2.30
2023-01-15T01:34:27.846Z,3.20
2023-01-15T01:35:27.845Z,1.50
2023-01-15T01:36:27.825Z,1.70
2023-01-15T01:37:27.845Z,1.50
2023-01-15T01:38:27.813Z,1.90
2023-01-15T01:39:27.808Z,3.20
2023-01-15T01:40:27.795Z,1.70
2023-01-15T01:41:27.783Z,3.40
2023-01-15T01:42:27.783Z,2.20
2023-01-15T01:43:27.772Z,2.00
2023-01-15T01:44:27.762Z,2.40
2023-01-15T01:45:27.810Z,1.90
2023-01-15T01:46:27.733Z,2.10
2023-01-15T01:47:27.735Z,2.00
2023-01-15T01:48:27.710Z,3.00
2023-01-15T01:49:27.751Z,1.90
2023-01-15T01:50:27.694Z,2.00
2023-01-15T01:51:27.682Z,1.90
2023-01-15T01:52:27.686Z,3.20
2023-01-15T01:53:27.669Z,1.70
2023-01-15T01:54:27.653Z,1.70
2023-01-15T01:55:27.650Z,2.70
2023-01-15T01:56:27.642Z,2.60
2023-01-15T01:57:27.644Z,3.80
2023-01-15T01:58:27.621Z,3.10
2023-01-15T01:59:27.733Z,4.20
2023-01-15T02:00:27.601Z,4.30
2023-01-15T02:01:27.690Z,3.40
2023-01-15T02:02:27.663Z,2.50
2023-01-15T02:03:27.579Z,2.70
2023-01-15T02:04:27.563Z,1.80
2023-01-15T02:05:27.549Z,3.50
2023-01-15T02:06:28.547Z,3.10
2023-01-15T02:07:27.555Z,2.00
2023-01-15T02:08:27.542Z,2.80
2023-01-15T02:09:27.524Z,5.10
2023-01-15T02:10:27.525Z,4.50
2023-01-15T02:11:27.536Z,2.60
2023-01-15T02:12:27.493Z,2.80
2023-01-15T02:13:27.499Z,2.50
2023-01-15T02:14:27.474Z,4.10
2023-01-15T02:15:27.462Z,2.60
2023-01-15T02:16:27.487Z,3.80
2023-01-15T02:17:27.454Z,4.30
2023-01-15T02:18:27.451Z,3.30
2023-01-15T02:19:27.428Z,2.00
2023-01-15T02:20:27.418Z,3.30
2023-01-15T02:21:27.419Z,2.70
2023-01-15T02:22:27.401Z,2.30
2023-01-15T02:23:27.405Z,2.30
2023-01-15T02:24:27.381Z,2.00
2023-01-15T02:25:27.373Z,2.80
2023-01-15T02:26:27.371Z,2.10
2023-01-15T02:27:27.352Z,3.20
2023-01-15T02:28:27.385Z,2.60
2023-01-15T02:29:27.334Z,3.20
2023-01-15T02:30:27.339Z,3.00
2023-01-15T02:31:28.337Z,5.40
2023-01-15T02:32:27.302Z,3.90
2023-01-15T02:33:27.309Z,2.50
2023-01-15T02:34:27.290Z,2.40
2023-01-15T02:35:27.277Z,1.70
2023-01-15T02:36:27.267Z,3.60
2023-01-15T02:37:27.256Z,2.10
2023-01-15T02:38:27.261Z,2.90
2023-01-15T02:39:27.236Z,3.30
2023-01-15T02:40:27.238Z,3.10
2023-01-15T02:41:27.247Z,2.40
2023-01-15T02:42:27.209Z,2.70
2023-01-15T02:43:27.215Z,1.80
2023-01-15T02:44:27.186Z,2.10
2023-01-15T02:45:27.421Z,2.30
2023-01-15T02:46:27.179Z,2.50
2023-01-15T02:47:27.167Z,3.30
2023-01-15T02:48:27.172Z,2.60
2023-01-15T02:49:27.139Z,2.40
2023-01-15T02:50:27.141Z,2.40
2023-01-15T02:51:27.127Z,2.30
2023-01-15T02:52:27.124Z,1.80
2023-01-15T02:53:27.125Z,2.60
2023-01-15T02:54:27.099Z,2.20
2023-01-15T02:55:27.096Z,2.00
2023-01-15T02:56:27.074Z,3.80
2023-01-15T02:57:27.067Z,3.30
2023-01-15T02:58:27.072Z,2.70
2023-01-15T02:59:27.053Z,2.60
2023-01-15T03:00:27.045Z,2.50
2023-01-15T03:01:27.136Z,2.30
2023-01-15T03:02:27.062Z,2.40
2023-01-15T03:03:27.024Z,2.40
2023-01-15T03:04:27.000Z,2.60
2023-01-15T03:05:27.003Z,5.00
2023-01-15T03:06:26.980Z,3.80
2023-01-15T03:07:26.973Z,2.40
2023-01-15T03:08:26.975Z,4.60
2023-01-15T03:09:26.953Z,4.00
2023-01-15T03:10:26.940Z,3.40
2023-01-15T03:11:26.936Z,4.60
2023-01-15T03:12:26.929Z,3.40
2023-01-15T03:13:26.933Z,2.90
2023-01-15T03:14:26.919Z,2.90
2023-01-15T03:15:26.897Z,4.30
2023-01-15T03:16:26.920Z,2.60
2023-01-15T03:17:26.878Z,2.50
2023-01-15T03:18:26.898Z,4.00
2023-01-15T03:19:26.880Z,2.60
2023-01-15T03:20:26.865Z,2.10
2023-01-15T03:21:26.858Z,3.10
2023-01-15T03:22:26.846Z,2.60
2023-01-15T03:23:26.850Z,2.60
2023-01-15T03:24:26.826Z,1.90
2023-01-15T03:25:26.815Z,4.10
2023-01-15T03:26:26.810Z,2.40
2023-01-15T03:27:26.798Z,2.00
2023-01-15T03:28:26.805Z,2.80
2023-01-15T03:29:26.792Z,2.20
2023-01-15T03:30:26.816Z,2.30
2023-01-15T03:31:26.759Z,1.80
2023-01-15T03:32:26.754Z,2.80
2023-01-15T03:33:26.756Z,1.80
2023-01-15T03:34:26.730Z,1.70
2023-01-15T03:35:26.732Z,2.20
2023-01-15T03:36:26.720Z,2.20
2023-01-15T03:37:26.709Z,1.50
2023-01-15T03:38:26.719Z,1.80
2023-01-15T03:39:26.705Z,2.80
2023-01-15T03:40:26.682Z,2.50
2023-01-15T03:41:26.680Z,2.60
2023-01-15T03:42:26.664Z,2.40
2023-01-15T03:43:26.668Z,1.40
2023-01-15T03:44:26.646Z,1.90
2023-01-15T03:45:26.648Z,2.30
2023-01-15T03:46:26.629Z,2.70
2023-01-15T03:47:26.617Z,1.60
2023-01-15T03:48:26.621Z,3.50
2023-01-15T03:49:26.603Z,2.50
2023-01-15T03:50:26.587Z,3.40
2023-01-15T03:51:26.585Z,1.90
2023-01-15T03:52:26.583Z,3.30
2023-01-15T03:53:26.578Z,3.50
2023-01-15T03:54:26.558Z,2.50
2023-01-15T03:55:26.548Z,2.00
2023-01-15T03:56:26.544Z,1.60
2023-01-15T03:57:26.537Z,2.50
2023-01-15T03:58:26.553Z,1.70
2023-01-15T03:59:26.517Z,1.80
2023-01-15T04:00:26.508Z,1.70
2023-01-15T04:01:26.622Z,1.30
2023-01-15T04:02:26.498Z,3.10
2023-01-15T04:03:26.497Z,2.30
2023-01-15T04:04:26.533Z,1.90
2023-01-15T04:05:26.474Z,2.20
2023-01-15T04:06:26.487Z,1.60
2023-01-15T04:07:26.449Z,1.90
2023-01-15T04:08:26.453Z,1.60
2023-01-15T04:09:26.433Z,1.50
2023-01-15T04:10:26.424Z,2.30
2023-01-15T04:11:26.418Z,1.50
2023-01-15T04:12:26.410Z,2.10
2023-01-15T04:13:26.647Z,1.90
2023-01-15T04:14:26.389Z,3.30
2023-01-15T04:15:26.429Z,2.80
2023-01-15T04:16:26.387Z,3.20
2023-01-15T04:17:26.368Z,2.90
2023-01-15T04:18:26.378Z,2.40
2023-01-15T04:19:26.348Z,1.90
2023-01-15T04:20:26.338Z,2.20
2023-01-15T04:21:26.339Z,1.90
2023-01-15T04:22:26.324Z,1.90
2023-01-15T04:23:26.323Z,1.40
2023-01-15T04:24:26.299Z,2.90
2023-01-15T04:25:26.288Z,1.90
2023-01-15T04:26:26.286Z,2.00
2023-01-15T04:27:26.272Z,3.00
2023-01-15T04:28:26.275Z,3.40
2023-01-15T04:29:26.292Z,2.50
2023-01-15T04:30:26.248Z,2.90
2023-01-15T04:31:26.236Z,1.80
2023-01-15T04:32:26.235Z,1.90
2023-01-15T04:33:26.236Z,1.70
2023-01-15T04:34:26.215Z,1.30
2023-01-15T04:35:26.208Z,1.70
2023-01-15T04:36:26.201Z,2.60
2023-01-15T04:37:26.187Z,1.70
2023-01-15T04:38:26.192Z,2.50
2023-01-15T04:39:26.174Z,1.80
2023-01-15T04:40:26.159Z,1.30
2023-01-15T04:41:26.150Z,2.30
2023-01-15T04:42:26.146Z,2.10
2023-01-15T04:43:26.149Z,3.30
2023-01-15T04:44:26.126Z,3.50
2023-01-15T04:45:26.117Z,2.00
2023-01-15T04:46:26.129Z,3.00
2023-01-15T04:47:26.110Z,3.20
2023-01-15T04:48:26.102Z,2.70
2023-01-15T04:49:26.081Z,2.60
2023-01-15T04:50:26.079Z,1.60
2023-01-15T04:51:26.073Z,3.50
2023-01-15T04:52:26.061Z,2.00
2023-01-15T04:53:26.064Z,1.80
2023-01-15T04:54:26.042Z,2.10
2023-01-15T04:55:26.040Z,2.10
2023-01-15T04:56:26.025Z,2.50
2023-01-15T04:57:26.013Z,2.40
2023-01-15T04:58:26.020Z,3.20
2023-01-15T04:59:51.908Z,2.20
2023-01-15T05:00:25.982Z,2.30
2023-01-15T05:01:26.051Z,1.10
2023-01-15T05:02:26.032Z,2.30
2023-01-15T05:03:25.981Z,2.10
2023-01-15T05:04:25.981Z,3.20
2023-01-15T05:05:25.943Z,2.80
2023-01-15T05:06:25.937Z,2.40
2023-01-15T05:07:25.923Z,2.10
2023-01-15T05:08:25.924Z,2.40
2023-01-15T05:09:25.901Z,2.50
2023-01-15T05:10:25.901Z,3.90
2023-01-15T05:11:25.881Z,2.60
2023-01-15T05:12:26.891Z,4.00
2023-01-15T05:13:25.873Z,4.30
2023-01-15T05:14:25.876Z,2.60
2023-01-15T05:15:25.857Z,3.60
2023-01-15T05:16:25.847Z,3.90
2023-01-15T05:17:25.839Z,2.20
2023-01-15T05:18:25.832Z,4.30
2023-01-15T05:19:25.832Z,2.30
2023-01-15T05:20:25.814Z,3.20
2023-01-15T05:21:25.805Z,4.10
2023-01-15T05:22:25.791Z,3.40
2023-01-15T05:23:25.789Z,3.70
2023-01-15T05:24:25.804Z,3.00
2023-01-15T05:25:25.772Z,2.20
2023-01-15T05:26:25.768Z,2.60
2023-01-15T05:27:25.753Z,6.60
2023-01-15T05:28:25.747Z,5.20
2023-01-15T05:29:25.750Z,3.00
2023-01-15T05:30:25.728Z,3.20
2023-01-15T05:31:25.763Z,6.10
2023-01-15T05:32:25.709Z,4.40
2023-01-15T05:33:25.703Z,2.50
2023-01-15T05:34:25.702Z,2.60
2023-01-15T05:35:25.690Z,2.30
2023-01-15T05:36:25.678Z,5.00
2023-01-15T05:37:25.673Z,2.70
2023-01-15T05:38:25.659Z,3.30
2023-01-15T05:39:25.664Z,4.30
2023-01-15T05:40:25.661Z,3.60
2023-01-15T05:41:25.637Z,6.40
2023-01-15T05:42:25.646Z,4.20
2023-01-15T05:43:25.620Z,5.30
2023-01-15T05:44:25.629Z,6.30
2023-01-15T05:45:25.603Z,3.40
2023-01-15T05:46:25.672Z,5.50
2023-01-15T05:47:25.583Z,3.90
2023-01-15T05:48:25.573Z,4.90
2023-01-15T05:49:25.570Z,5.10
2023-01-15T05:50:27.170Z,4.10
2023-01-15T05:51:25.552Z,4.50
2023-01-15T05:52:25.535Z,6.60
2023-01-15T05:53:25.536Z,5.90
2023-01-15T05:54:25.531Z,5.30
2023-01-15T05:55:25.514Z,3.90
2023-01-15T05:56:25.509Z,3.40
2023-01-15T05:57:25.512Z,5.30
2023-01-15T05:58:25.494Z,2.80
2023-01-15T05:59:25.494Z,3.20
2023-01-15T06:00:25.470Z,2.50
2023-01-15T06:01:25.526Z,3.90
2023-01-15T06:02:25.512Z,3.30
2023-01-15T06:03:25.448Z,2.40
2023-01-15T06:04:25.496Z,2.60
2023-01-15T06:05:25.431Z,4.30
2023-01-15T06:06:25.418Z,4.80
2023-01-15T06:07:25.412Z,3.30
2023-01-15T06:08:25.399Z,2.40
2023-01-15T06:09:25.419Z,3.90
2023-01-15T06:10:25.386Z,3.60
2023-01-15T06:11:25.377Z,4.10
2023-01-15T06:12:25.367Z,3.30
2023-01-15T06:13:25.358Z,3.20
2023-01-15T06:14:25.369Z,3.90
2023-01-15T06:15:25.357Z,2.80
2023-01-15T06:16:25.361Z,4.60
2023-01-15T06:17:25.326Z,4.20
2023-01-15T06:18:25.315Z,3.70
2023-01-15T06:19:25.343Z,3.50
2023-01-15T06:20:25.299Z,4.40
2023-01-15T06:21:25.289Z,3.80
2023-01-15T06:22:25.295Z,5.00
2023-01-15T06:23:25.271Z,2.60
2023-01-15T06:24:25.274Z,2.60
2023-01-15T06:25:25.255Z,3.60
2023-01-15T06:26:25.263Z,7.40
2023-01-15T06:27:25.237Z,4.10
2023-01-15T06:28:25.237Z,4.00
2023-01-15T06:29:25.231Z,5.80
2023-01-15T06:30:25.208Z,5.20
2023-01-15T06:31:25.232Z,3.60
2023-01-15T06:32:25.196Z,3.20
2023-01-15T06:33:25.182Z,3.10
2023-01-15T06:34:25.189Z,3.50
2023-01-15T06:35:25.160Z,3.00
2023-01-15T06:36:25.192Z,5.00
2023-01-15T06:37:25.148Z,2.30
2023-01-15T06:38:25.130Z,3.60
2023-01-15T06:39:25.144Z,4.00
2023-01-15T06:40:25.121Z,3.80
2023-01-15T06:41:25.107Z,2.80
2023-01-15T06:42:25.109Z,4.70
2023-01-15T06:43:25.090Z,3.50
2023-01-15T06:44:25.755Z,3.60
2023-01-15T06:45:25.111Z,4.60
2023-01-15T06:46:25.071Z,7.30
2023-01-15T06:47:25.141Z,3.90
2023-01-15T06:48:25.053Z,5.30
2023-01-15T06:49:25.049Z,3.50
2023-01-15T06:50:25.032Z,4.30
2023-01-15T06:51:25.043Z,3.90
2023-01-15T06:52:25.013Z,3.30
2023-01-15T06:53:25.014Z,2.80
2023-01-15T06:54:25.010Z,4.00
2023-01-15T06:55:24.987Z,5.90
2023-01-15T06:56:24.970Z,4.40
2023-01-15T06:57:25.973Z,5.10
2023-01-15T06:58:24.961Z,5.10
2023-01-15T06:59:24.965Z,5.10
2023-01-15T07:00:24.963Z,2.50
2023-01-15T07:01:25.039Z,2.90
2023-01-15T07:02:24.931Z,4.10
2023-01-15T07:03:24.924Z,5.10
2023-01-15T07:04:24.928Z,4.60
2023-01-15T07:05:24.906Z,3.50
2023-01-15T07:06:26.473Z,5.30
2023-01-15T07:07:25.883Z,3.80
2023-01-15T07:08:24.878Z,5.40
2023-01-15T07:09:24.879Z,5.20
2023-01-15T07:10:24.873Z,3.60
2023-01-15T07:11:24.851Z,7.70
2023-01-15T07:12:24.845Z,3.20
2023-01-15T07:13:24.827Z,4.60
2023-01-15T07:14:24.865Z,4.20
2023-01-15T07:15:24.819Z,3.50
2023-01-15T07:16:24.823Z,4.50
2023-01-15T07:17:24.800Z,3.00
2023-01-15T07:18:24.786Z,7.10
2023-01-15T07:19:24.834Z,5.30
2023-01-15T07:20:24.773Z,5.90
2023-01-15T07:21:24.757Z,7.10
2023-01-15T07:22:24.761Z,5.50
2023-01-15T07:23:24.748Z,5.00
2023-01-15T07:24:24.751Z,6.80
2023-01-15T07:25:24.734Z,6.50
2023-01-15T07:26:24.715Z,4.30
2023-01-15T07:27:24.709Z,4.00
2023-01-15T07:28:24.698Z,3.70
2023-01-15T07:29:24.698Z,5.60
2023-01-15T07:30:24.684Z,7.40
2023-01-15T07:31:24.699Z,5.60
2023-01-15T07:32:24.667Z,6.30
2023-01-15T07:33:24.652Z,4.30
2023-01-15T07:34:24.657Z,4.00
2023-01-15T07:35:24.641Z,7.90
2023-01-15T07:36:24.633Z,4.20
2023-01-15T07:37:24.625Z,6.60
2023-01-15T07:38:24.617Z,5.10
2023-01-15T07:39:24.641Z,5.30
2023-01-15T07:40:24.598Z,6.90
2023-01-15T07:41:24.583Z,5.00
2023-01-15T07:42:24.597Z,6.20
2023-01-15T07:43:24.584Z,6.40
2023-01-15T07:44:24.578Z,7.20
2023-01-15T07:45:24.569Z,5.60
2023-01-15T07:46:24.544Z,5.40
2023-01-15T07:47:24.532Z,5.70
2023-01-15T07:48:24.514Z,6.50
2023-01-15T07:49:25.531Z,4.90
2023-01-15T07:50:24.515Z,7.00
2023-01-15T07:51:24.501Z,7.00
2023-01-15T07:52:24.490Z,6.50
2023-01-15T07:53:24.483Z,7.20
2023-01-15T07:54:24.496Z,8.20
2023-01-15T07:55:24.457Z,4.90
2023-01-15T07:56:25.458Z,5.40
2023-01-15T07:57:24.447Z,4.30
2023-01-15T07:58:24.434Z,4.10
2023-01-15T07:59:24.440Z,6.70
2023-01-15T08:00:24.442Z,7.60
2023-01-15T08:01:24.505Z,5.60
2023-01-15T08:02:24.397Z,5.40
2023-01-15T08:03:24.397Z,5.30
2023-01-15T08:04:24.385Z,6.30
2023-01-15T08:05:24.389Z,5.70
2023-01-15T08:06:24.366Z,8.60
2023-01-15T08:07:24.363Z,7.00
2023-01-15T08:08:24.348Z,6.50
2023-01-15T08:09:24.346Z,7.10
2023-01-15T08:10:24.362Z,7.80
2023-01-15T08:11:24.343Z,7.40
2023-01-15T08:12:24.319Z,5.30
2023-01-15T08:13:24.306Z,6.20
2023-01-15T08:14:24.298Z,7.60
2023-01-15T08:15:24.304Z,9.80
2023-01-15T08:16:24.297Z,4.90
2023-01-15T08:17:24.278Z,8.80
2023-01-15T08:18:24.284Z,9.20
2023-01-15T08:19:24.263Z,8.40
2023-01-15T08:20:24.278Z,6.30
2023-01-15T08:21:24.246Z,8.30
2023-01-15T08:22:24.233Z,6.80
2023-01-15T08:23:24.232Z,9.00
2023-01-15T08:24:24.222Z,9.10
2023-01-15T08:25:24.224Z,8.30
2023-01-15T08:26:24.201Z,8.80
2023-01-15T08:27:24.197Z,5.20
2023-01-15T08:28:24.184Z,5.50
2023-01-15T08:29:24.174Z,7.60
2023-01-15T08:30:24.181Z,8.10
2023-01-15T08:31:24.173Z,7.80
2023-01-15T08:32:24.158Z,5.70
2023-01-15T08:33:24.141Z,8.40
2023-01-15T08:34:24.130Z,7.90
2023-01-15T08:35:24.136Z,7.10
2023-01-15T08:36:24.152Z,8.90
2023-01-15T08:37:25.455Z,4.60
2023-01-15T08:38:25.098Z,9.70
2023-01-15T08:39:24.091Z,7.00
2023-01-15T08:40:24.093Z,7.60
2023-01-15T08:41:24.065Z,11.80
2023-01-15T08:42:24.065Z,9.10
2023-01-15T08:43:24.054Z,7.20
2023-01-15T08:44:24.048Z,6.80
2023-01-15T08:45:24.048Z,7.80
2023-01-15T08:46:24.024Z,8.50
2023-01-15T08:47:24.014Z,7.50
2023-01-15T08:48:24.015Z,7.00
2023-01-15T08:49:24.002Z,9.50
2023-01-15T08:50:24.004Z,6.90
2023-01-15T08:51:23.982Z,8.30
2023-01-15T08:52:23.973Z,5.80
2023-01-15T08:53:23.968Z,6.60
2023-01-15T08:54:23.950Z,10.10
2023-01-15T08:55:24.982Z,7.10
2023-01-15T08:56:23.934Z,7.20
2023-01-15T08:57:23.933Z,7.20
2023-01-15T08:58:23.921Z,5.80
2023-01-15T08:59:23.919Z,4.90
2023-01-15T09:00:23.958Z,5.60
2023-01-15T09:01:23.982Z,11.00
2023-01-15T09:02:23.886Z,6.90
2023-01-15T09:03:23.886Z,6.50
2023-01-15T09:04:23.893Z,7.40
2023-01-15T09:05:23.875Z,8.80
2023-01-15T09:06:23.852Z,5.70
2023-01-15T09:07:23.922Z,6.80
2023-01-15T09:08:23.842Z,5.20
2023-01-15T09:09:23.821Z,7.60
2023-01-15T09:10:23.875Z,7.00
2023-01-15T09:11:23.812Z,7.30
2023-01-15T09:12:23.799Z,9.00
2023-01-15T09:13:23.788Z,7.30
2023-01-15T09:14:57.836Z,7.60
2023-01-15T09:15:24.782Z,5.10
2023-01-15T09:16:23.800Z,7.90
2023-01-15T09:17:23.753Z,9.40
2023-01-15T09:18:23.741Z,5.70
2023-01-15T09:19:23.841Z,6.90
2023-01-15T09:20:23.737Z,6.90
2023-01-15T09:21:23.717Z,8.80
2023-01-15T09:22:23.707Z,8.70
2023-01-15T09:23:23.703Z,6.30
2023-01-15T09:24:23.689Z,8.80
2023-01-15T09:25:23.879Z,8.70
2023-01-15T09:26:23.683Z,7.20
2023-01-15T09:27:23.673Z,8.40
2023-01-15T09:28:23.653Z,6.70
2023-01-15T09:29:23.646Z,9.50
2023-01-15T09:30:23.652Z,7.50
2023-01-15T09:31:23.632Z,7.60
2023-01-15T09:32:23.643Z,5.00
2023-01-15T09:33:23.618Z,7.10
2023-01-15T09:34:23.604Z,6.60
2023-01-15T09:35:23.605Z,5.50
2023-01-15T09:36:23.582Z,7.10
2023-01-15T09:37:23.575Z,7.00
2023-01-15T09:38:23.566Z,7.30
2023-01-15T09:39:23.554Z,10.20
2023-01-15T09:40:23.560Z,9.90
2023-01-15T09:41:23.543Z,8.00
2023-01-15T09:42:23.542Z,8.20
2023-01-15T09:43:23.533Z,7.40
2023-01-15T09:44:23.526Z,8.20
2023-01-15T09:45:23.524Z,5.80
2023-01-15T09:46:23.532Z,8.20
2023-01-15T09:47:23.491Z,10.40
2023-01-15T09:48:23.483Z,9.90
2023-01-15T09:49:23.476Z,8.60
2023-01-15T09:50:23.482Z,7.40
2023-01-15T09:51:23.520Z,8.70
2023-01-15T09:52:23.454Z,5.90
2023-01-15T09:53:23.445Z,9.50
2023-01-15T09:54:23.437Z,5.50
2023-01-15T09:55:23.442Z,10.00
2023-01-15T09:56:23.419Z,7.90
2023-01-15T09:57:23.409Z,7.20
2023-01-15T09:58:23.400Z,8.90
2023-01-15T09:59:23.393Z,8.30
2023-01-15T10:00:23.394Z,7.70
2023-01-15T10:01:23.388Z,8.10
2023-01-15T10:02:23.361Z,10.60
2023-01-15T10:03:23.421Z,6.20
2023-01-15T10:04:23.395Z,8.20
2023-01-15T10:05:23.358Z,6.40
2023-01-15T10:06:23.356Z,7.10
2023-01-15T10:07:23.316Z,5.90
2023-01-15T10:08:23.324Z,7.60
2023-01-15T10:09:23.303Z,10.30
2023-01-15T10:10:23.288Z,11.80
2023-01-15T10:11:23.297Z,5.80
2023-01-15T10:12:23.277Z,6.00
2023-01-15T10:13:23.264Z,7.30
2023-01-15T10:14:23.252Z,7.50
2023-01-15T10:15:23.268Z,7.50
2023-01-15T10:16:23.241Z,5.10
2023-01-15T10:17:23.231Z,7.70
2023-01-15T10:18:23.223Z,7.40
2023-01-15T10:19:23.204Z,7.30
2023-01-15T10:20:24.216Z,7.00
2023-01-15T10:21:23.201Z,7.30
2023-01-15T10:22:23.192Z,9.20
2023-01-15T10:23:23.185Z,5.60
2023-01-15T10:24:23.178Z,8.50
2023-01-15T10:25:23.161Z,7.60
2023-01-15T10:26:23.159Z,9.40
2023-01-15T10:27:23.154Z,9.60
2023-01-15T10:28:23.136Z,9.20
2023-01-15T10:29:23.125Z,4.70
2023-01-15T10:30:23.113Z,10.90
2023-01-15T10:31:23.129Z,7.30
2023-01-15T10:32:23.109Z,9.60
2023-01-15T10:33:23.089Z,7.20
2023-01-15T10:34:23.086Z,6.90
2023-01-15T10:35:23.074Z,4.90
2023-01-15T10:36:23.077Z,5.80
2023-01-15T10:37:23.058Z,5.00
2023-01-15T10:38:23.048Z,4.50
2023-01-15T10:39:23.066Z,5.40
2023-01-15T10:40:23.045Z,4.60
2023-01-15T10:41:23.056Z,4.90
2023-01-15T10:42:23.010Z,5.10
2023-01-15T10:43:23.004Z,4.30
2023-01-15T10:44:22.996Z,4.20
2023-01-15T10:45:22.991Z,3.70
2023-01-15T10:46:23.050Z,7.90
2023-01-15T10:47:22.969Z,3.40
2023-01-15T10:48:22.955Z,5.60
2023-01-15T10:49:22.951Z,6.80
2023-01-15T10:50:22.955Z,6.60
2023-01-15T10:51:22.943Z,6.60
2023-01-15T10:52:22.922Z,6.80
2023-01-15T10:53:22.917Z,6.80
2023-01-15T10:54:22.902Z,6.30
2023-01-15T10:55:23.901Z,7.20
2023-01-15T10:56:22.919Z,4.50
2023-01-15T10:57:22.888Z,5.20
2023-01-15T10:58:22.871Z,4.60
2023-01-15T10:59:54.783Z,6.20
2023-01-15T11:00:22.855Z,4.90
2023-01-15T11:01:22.946Z,5.20
2023-01-15T11:02:22.934Z,4.20
2023-01-15T11:03:22.845Z,5.60
2023-01-15T11:04:22.826Z,6.50
2023-01-15T11:05:22.812Z,4.00
2023-01-15T11:06:22.809Z,3.30
2023-01-15T11:07:22.795Z,4.60
2023-01-15T11:09:07.423Z,5.20
2023-01-15T11:09:24.772Z,6.90
2023-01-15T11:10:22.759Z,3.10
2023-01-15T11:11:22.773Z,2.50
2023-01-15T11:12:22.745Z,3.30
2023-01-15T11:13:22.739Z,3.10
2023-01-15T11:14:22.728Z,2.90
2023-01-15T11:15:22.718Z,3.30
2023-01-15T11:16:22.726Z,5.90
2023-01-15T11:17:22.704Z,3.30
2023-01-15T11:18:22.701Z,5.50
2023-01-15T11:19:22.683Z,7.50
2023-01-15T11:20:22.693Z,4.90
2023-01-15T11:21:22.684Z,6.00
2023-01-15T11:22:22.658Z,5.70
2023-01-15T11:23:22.662Z,6.20
2023-01-15T11:24:22.705Z,3.60
2023-01-15T11:25:22.691Z,4.20
2023-01-15T11:26:22.636Z,5.90
2023-01-15T11:27:22.618Z,6.60
2023-01-15T11:28:22.608Z,4.10
2023-01-15T11:29:22.594Z,6.30
2023-01-15T11:30:22.583Z,7.00
2023-01-15T11:31:22.604Z,4.80
2023-01-15T11:32:22.565Z,6.60
2023-01-15T11:33:22.575Z,8.70
2023-01-15T11:34:22.554Z,5.20
2023-01-15T11:35:22.546Z,7.00
2023-01-15T11:36:22.542Z,5.70
2023-01-15T11:37:22.523Z,6.80
2023-01-15T11:38:22.518Z,6.60
2023-01-15T11:39:22.519Z,8.10
2023-01-15T11:40:22.504Z,7.50
2023-01-15T11:41:22.502Z,6.40
2023-01-15T11:42:22.487Z,5.60
2023-01-15T11:43:22.483Z,7.00
2023-01-15T11:44:22.461Z,6.10
2023-01-15T11:45:22.454Z,10.80
2023-01-15T11:46:22.522Z,6.00
2023-01-15T11:47:22.433Z,6.90
2023-01-15T11:48:22.420Z,5.60
2023-01-15T11:49:22.422Z,5.60
2023-01-15T11:50:22.404Z,5.40
2023-01-15T11:51:22.414Z,4.50
2023-01-15T11:52:22.385Z,6.30
2023-01-15T11:53:22.382Z,6.10
2023-01-15T11:54:22.376Z,4.70
2023-01-15T11:55:22.362Z,8.50
2023-01-15T11:56:22.363Z,5.80
2023-01-15T11:57:22.347Z,8.10
2023-01-15T11:58:22.344Z,10.80
2023-01-15T11:59:22.331Z,6.10
2023-01-15T12:00:22.319Z,6.80
2023-01-15T12:01:22.422Z,5.20
2023-01-15T12:02:22.296Z,4.70
2023-01-15T12:03:22.363Z,7.00
2023-01-15T12:04:22.402Z,6.70
2023-01-15T12:05:22.272Z,7.50
2023-01-15T12:06:22.270Z,5.10
2023-01-15T12:07:22.261Z,7.10
2023-01-15T12:08:22.249Z,4.70
2023-01-15T12:09:22.250Z,7.80
2023-01-15T12:10:22.229Z,5.60
2023-01-15T12:11:27.176Z,4.10
2023-01-15T12:12:24.209Z,7.90
2023-01-15T12:13:22.205Z,3.80
2023-01-15T12:14:22.212Z,5.50
2023-01-15T12:15:22.191Z,5.00
2023-01-15T12:16:22.217Z,5.80
2023-01-15T12:17:22.168Z,4.70
2023-01-15T12:18:22.156Z,6.30
2023-01-15T12:19:22.154Z,6.00
2023-01-15T12:20:22.139Z,4.90
2023-01-15T12:21:22.144Z,8.70
2023-01-15T12:22:22.128Z,7.40
2023-01-15T12:23:22.119Z,6.70
2023-01-15T12:24:22.112Z,6.70
2023-01-15T12:25:23.107Z,10.10
2023-01-15T12:26:22.102Z,5.80
2023-01-15T12:27:22.083Z,8.50
2023-01-15T12:28:22.093Z,7.30
2023-01-15T12:29:22.090Z,7.10
2023-01-15T12:30:22.051Z,8.20
2023-01-15T12:31:22.159Z,8.10
2023-01-15T12:32:22.038Z,7.10
2023-01-15T12:33:22.038Z,11.10
2023-01-15T12:34:22.008Z,8.30
2023-01-15T12:35:22.008Z,7.30
2023-01-15T12:36:22.000Z,10.20
2023-01-15T12:37:21.982Z,10.20
2023-01-15T12:38:22.975Z,10.30
2023-01-15T12:39:21.964Z,5.90
2023-01-15T12:40:21.955Z,11.90
2023-01-15T12:41:21.966Z,10.10
2023-01-15T12:42:21.945Z,9.80
2023-01-15T12:43:21.928Z,11.30
2023-01-15T12:44:21.940Z,7.90
2023-01-15T12:45:21.926Z,8.50
2023-01-15T12:46:21.934Z,11.90
2023-01-15T12:47:21.903Z,10.60
2023-01-15T12:48:21.881Z,8.70
2023-01-15T12:49:21.883Z,9.00
2023-01-15T12:50:21.868Z,7.60
2023-01-15T12:51:23.757Z,9.30
2023-01-15T12:52:21.844Z,7.90
2023-01-15T12:53:21.833Z,8.80
2023-01-15T12:54:21.828Z,10.20
2023-01-15T12:55:21.816Z,6.60
2023-01-15T12:56:21.819Z,9.90
2023-01-15T12:57:21.806Z,11.10
2023-01-15T12:58:21.796Z,12.30
2023-01-15T12:59:21.797Z,9.40
2023-01-15T13:00:21.775Z,7.60
2023-01-15T13:01:21.862Z,10.60
2023-01-15T13:02:21.774Z,10.50
2023-01-15T13:03:21.747Z,8.70
2023-01-15T13:04:21.740Z,7.70
2023-01-15T13:05:21.732Z,9.10
2023-01-15T13:06:21.737Z,9.60
2023-01-15T13:07:21.717Z,16.00
2023-01-15T13:08:21.710Z,10.00
2023-01-15T13:09:21.698Z,11.20
2023-01-15T13:10:21.697Z,10.00
2023-01-15T13:11:21.699Z,6.50
2023-01-15T13:12:21.667Z,10.60
2023-01-15T13:13:21.668Z,6.60
2023-01-15T13:14:21.671Z,9.50
2023-01-15T13:15:21.647Z,12.80
2023-01-15T13:16:21.724Z,7.80
2023-01-15T13:17:21.629Z,9.50